Hakuhomaru — JJ4011 — position and weather

sailwx.info

Track history (hours):
 
Tides and Currents Weather Stations Pressure Air Temp Water Temp Dewpoint Dewpoint Depression Visibility Wind Speed Wind Dir Waves Ship Positions

Hakuhomaru

Last reported at 2014-Oct-31 06:33 UTC. Time now 2014-Oct-31 10:49 UTC.
Position N 34°41' E 135°12'.

Length 38 m; draft 3.3 m.

Type: Tug. MMSI: 431401584.

Date/timePositionNaut miles runAvg speedWind from/ knotsBaromVisibWave heightAir tempDewpointWater temp
2014-Oct-31 06:33N 34°41' E 135°12'0 0.0
2014-Oct-31 05:33N 34°41' E 135°12'2 1.9
2014-Oct-31 04:33N 34°40' E 135°15'11 8.9
2014-Oct-31 03:16N 34°33' E 135°26'1 1.0
2014-Oct-31 02:26N 34°33' E 135°27'1 1.6
2014-Oct-31 01:33N 34°33' E 135°25'3 2.9
2014-Oct-31 00:32N 34°36' E 135°24'10 9.9
2014-Oct-30 23:33N 34°41' E 135°14'2 2.2
2014-Oct-30 22:33N 34°40' E 135°15'2 1.5
2014-Oct-30 21:33N 34°41' E 135°14'1 1.4
2014-Oct-30 20:33N 34°41' E 135°12'0 0.0
2014-Oct-30 10:33N 34°41' E 135°12'4 4.1
2014-Oct-30 09:33N 34°42' E 135°17'0 0.4
2014-Oct-30 08:33N 34°42' E 135°17'0 0.0
2014-Oct-30 07:33N 34°42' E 135°17'0 0.0
2014-Oct-30 06:33N 34°42' E 135°17'10 2.5
2014-Oct-30 02:19N 34°33' E 135°25'4 4.2
2014-Oct-30 01:25N 34°34' E 135°20'1 1.0
2014-Oct-30 00:33N 34°34' E 135°19'9 8.6
2014-Oct-29 23:34N 34°42' E 135°15'2 2.1
2014-Oct-29 22:33N 34°40' E 135°15'1 1.2
2014-Oct-29 21:33N 34°41' E 135°14'1 1.4
2014-Oct-29 20:33N 34°41' E 135°12'3 0.4
2014-Oct-29 12:33N 34°39' E 135°15'3 3.0
2014-Oct-29 11:34N 34°41' E 135°12'0 0.2
2014-Oct-29 10:33N 34°41' E 135°12'4 4.5
2014-Oct-29 09:33N 34°41' E 135°18'4 4.1
2014-Oct-29 08:33N 34°41' E 135°13'1 1.2
2014-Oct-29 07:33N 34°40' E 135°13'1 1.4
2014-Oct-29 06:33N 34°39' E 135°15'1 1.0
2014-Oct-29 05:33N 34°40' E 135°15'2 2.3
2014-Oct-29 04:33N 34°41' E 135°12'0 0.0
2014-Oct-29 03:33N 34°41' E 135°12'0 0.0
2014-Oct-29 02:33N 34°41' E 135°12'0 0.0
2014-Oct-29 01:33N 34°41' E 135°12'0 0.0
2014-Oct-29 00:33N 34°41' E 135°12'0 0.0
2014-Oct-28 23:33N 34°41' E 135°12'2 2.5
2014-Oct-28 22:33N 34°42' E 135°15'2 2.5
2014-Oct-28 21:33N 34°42' E 135°18'5 4.9
2014-Oct-28 20:33N 34°41' E 135°12'0 0.0
2014-Oct-28 00:30N 34°41' E 135°12'4 4.1
2014-Oct-27 23:33N 34°41' E 135°17'2 1.8
2014-Oct-27 22:33N 34°40' E 135°18'4 4.2
2014-Oct-27 21:33N 34°41' E 135°13'1 1.0
2014-Oct-27 20:33N 34°41' E 135°12'0 0.0
2014-Oct-27 19:33N 34°41' E 135°12'0 0.0
2014-Oct-27 18:33N 34°41' E 135°12'0 0.0
2014-Oct-27 17:33N 34°41' E 135°12'0 0.0
2014-Oct-27 16:33N 34°41' E 135°12'2 1.8
2014-Oct-27 15:33N 34°40' E 135°14'1 1.2
2014-Oct-27 14:33N 34°40' E 135°13'0 0.0
2014-Oct-27 13:33N 34°40' E 135°13'1 1.4
2014-Oct-27 12:33N 34°41' E 135°15'1 1.2
2014-Oct-27 11:33N 34°40' E 135°15'2 1.6
2014-Oct-27 10:33N 34°41' E 135°16'2 2.2
2014-Oct-27 09:33N 34°41' E 135°14'1 0.7
2014-Oct-27 08:33N 34°41' E 135°14'1 1.4
2014-Oct-27 07:33N 34°40' E 135°13'2 1.9
2014-Oct-27 06:33N 34°39' E 135°15'0 0.2
2014-Oct-27 05:33N 34°39' E 135°15'0 0.0
2014-Oct-27 04:32N 34°39' E 135°15'0 0.0
2014-Oct-27 03:33N 34°39' E 135°15'3 2.7
2014-Oct-27 02:33N 34°41' E 135°12'0 0.0
2014-Oct-27 01:33N 34°41' E 135°12'0 0.0
2014-Oct-27 00:33N 34°41' E 135°12'0 0.0
2014-Oct-26 23:33N 34°41' E 135°12'2 1.9
2014-Oct-26 22:33N 34°40' E 135°15'0 0.2
2014-Oct-26 21:33N 34°40' E 135°15'2 2.0
2014-Oct-26 20:33N 34°41' E 135°12'0 0.0
2014-Oct-25 23:30N 34°41' E 135°12'4 4.5
2014-Oct-25 22:33N 34°42' E 135°17'1 1.1
2014-Oct-25 21:33N 34°41' E 135°17'0 0.0
2014-Oct-25 20:33N 34°41' E 135°17'0 0.0
2014-Oct-25 19:33N 34°41' E 135°17'0 0.0
2014-Oct-25 18:33N 34°41' E 135°17'0 0.0
2014-Oct-25 17:33N 34°41' E 135°17'3 3.1
2014-Oct-25 16:33N 34°40' E 135°14'1 0.9
2014-Oct-25 15:33N 34°40' E 135°15'0 0.0
2014-Oct-25 14:33N 34°40' E 135°15'1 0.6
2014-Oct-25 13:33N 34°39' E 135°15'2 1.6
2014-Oct-25 12:33N 34°39' E 135°16'4 3.8
2014-Oct-25 11:33N 34°41' E 135°12'0 0.0
2014-Oct-25 10:33N 34°41' E 135°12'0 0.0
2014-Oct-25 09:33N 34°41' E 135°12'0 0.0
2014-Oct-25 08:33N 34°41' E 135°12'1 0.8
2014-Oct-25 07:33N 34°40' E 135°13'1 1.2
2014-Oct-25 06:33N 34°41' E 135°14'0 0.0
2014-Oct-25 05:33N 34°41' E 135°14'2 2.2
2014-Oct-25 04:33N 34°41' E 135°17'4 4.0
2014-Oct-25 03:33N 34°41' E 135°12'0 0.0
2014-Oct-25 02:33N 34°41' E 135°12'0 0.0
2014-Oct-25 01:33N 34°41' E 135°12'0 0.0
2014-Oct-25 00:33N 34°41' E 135°12'0 0.0
2014-Oct-24 23:33N 34°41' E 135°12'4 4.2
2014-Oct-24 22:33N 34°41' E 135°17'3 2.6
2014-Oct-24 21:33N 34°41' E 135°14'2 1.6
2014-Oct-24 20:33N 34°41' E 135°12'0 0.0
2014-Oct-24 06:31N 34°41' E 135°12'0 0.0
2014-Oct-24 05:33N 34°41' E 135°12'0 0.0
2014-Oct-24 04:33N 34°41' E 135°12'0 0.0
2014-Oct-24 03:33N 34°41' E 135°12'0 0.0
2014-Oct-24 02:33N 34°41' E 135°12'0 0.0
2014-Oct-24 01:33N 34°41' E 135°12'0 0.0
2014-Oct-24 00:33N 34°41' E 135°12'0 0.0
2014-Oct-23 23:33N 34°41' E 135°12'0 0.0
2014-Oct-23 22:33N 34°41' E 135°12'0 0.0
2014-Oct-23 07:20N 34°41' E 135°12'2 2.2
2014-Oct-23 06:33N 34°40' E 135°14'2 1.8
2014-Oct-23 05:33N 34°41' E 135°12'0 0.1
2014-Oct-23 04:33N 34°41' E 135°12'0 0.0
2014-Oct-23 03:33N 34°41' E 135°12'0 0.0
2014-Oct-23 02:33N 34°41' E 135°12'0 0.0
2014-Oct-23 01:33N 34°41' E 135°12'2 2.3
2014-Oct-23 00:33N 34°39' E 135°15'0 0.3
2014-Oct-22 23:34N 34°39' E 135°15'1 0.8
2014-Oct-22 22:33N 34°40' E 135°14'2 1.7
2014-Oct-22 21:33N 34°41' E 135°13'1 0.8
2014-Oct-22 20:33N 34°41' E 135°12'0 0.0
2014-Oct-22 06:33N 34°41' E 135°12'2 2.4
2014-Oct-22 05:34N 34°39' E 135°15'0 0.3
2014-Oct-22 04:33N 34°39' E 135°15'0 0.0
2014-Oct-22 03:30N 34°39' E 135°15'3 3.1
2014-Oct-22 02:33N 34°41' E 135°12'3 3.1
2014-Oct-22 01:33N 34°39' E 135°15'0 0.3
2014-Oct-22 00:33N 34°39' E 135°15'3 2.8
2014-Oct-21 23:33N 34°41' E 135°12'0 0.0
2014-Oct-21 22:33N 34°41' E 135°12'0 0.0
2014-Oct-21 08:22N 34°41' E 135°12'2 2.9
2014-Oct-21 07:32N 34°39' E 135°15'  
Track history (hours):
 
Tides and Currents Weather Stations Pressure Air Temp Water Temp Dewpoint Dewpoint Depression Visibility Wind Speed Wind Dir Waves Ship Positions

Hakuhomaru

Last reported at 2014-Oct-31 06:33 UTC. Time now 2014-Oct-31 10:49 UTC.
Position N 34°41' E 135°12'.

Length 38 m; draft 3.3 m.

Type: Tug. MMSI: 431401584.

Date/timePositionNaut miles runAvg speedWind from/ knotsBaromVisibWave heightAir tempDewpointWater temp
2014-Oct-31 06:33N 34°41' E 135°12'0 0.0
2014-Oct-31 05:33N 34°41' E 135°12'2 1.9
2014-Oct-31 04:33N 34°40' E 135°15'11 8.9
2014-Oct-31 03:16N 34°33' E 135°26'1 1.0
2014-Oct-31 02:26N 34°33' E 135°27'1 1.6
2014-Oct-31 01:33N 34°33' E 135°25'3 2.9
2014-Oct-31 00:32N 34°36' E 135°24'10 9.9
2014-Oct-30 23:33N 34°41' E 135°14'2 2.2
2014-Oct-30 22:33N 34°40' E 135°15'2 1.5
2014-Oct-30 21:33N 34°41' E 135°14'1 1.4
2014-Oct-30 20:33N 34°41' E 135°12'0 0.0
2014-Oct-30 10:33N 34°41' E 135°12'4 4.1
2014-Oct-30 09:33N 34°42' E 135°17'0 0.4
2014-Oct-30 08:33N 34°42' E 135°17'0 0.0
2014-Oct-30 07:33N 34°42' E 135°17'0 0.0
2014-Oct-30 06:33N 34°42' E 135°17'10 2.5
2014-Oct-30 02:19N 34°33' E 135°25'4 4.2
2014-Oct-30 01:25N 34°34' E 135°20'1 1.0
2014-Oct-30 00:33N 34°34' E 135°19'9 8.6
2014-Oct-29 23:34N 34°42' E 135°15'2 2.1
2014-Oct-29 22:33N 34°40' E 135°15'1 1.2
2014-Oct-29 21:33N 34°41' E 135°14'1 1.4
2014-Oct-29 20:33N 34°41' E 135°12'3 0.4
2014-Oct-29 12:33N 34°39' E 135°15'3 3.0
2014-Oct-29 11:34N 34°41' E 135°12'0 0.2
2014-Oct-29 10:33N 34°41' E 135°12'4 4.5
2014-Oct-29 09:33N 34°41' E 135°18'4 4.1
2014-Oct-29 08:33N 34°41' E 135°13'1 1.2
2014-Oct-29 07:33N 34°40' E 135°13'1 1.4
2014-Oct-29 06:33N 34°39' E 135°15'1 1.0
2014-Oct-29 05:33N 34°40' E 135°15'2 2.3
2014-Oct-29 04:33N 34°41' E 135°12'0 0.0
2014-Oct-29 03:33N 34°41' E 135°12'0 0.0
2014-Oct-29 02:33N 34°41' E 135°12'0 0.0
2014-Oct-29 01:33N 34°41' E 135°12'0 0.0
2014-Oct-29 00:33N 34°41' E 135°12'0 0.0
2014-Oct-28 23:33N 34°41' E 135°12'2 2.5
2014-Oct-28 22:33N 34°42' E 135°15'2 2.5
2014-Oct-28 21:33N 34°42' E 135°18'5 4.9
2014-Oct-28 20:33N 34°41' E 135°12'0 0.0
2014-Oct-28 00:30N 34°41' E 135°12'4 4.1
2014-Oct-27 23:33N 34°41' E 135°17'2 1.8
2014-Oct-27 22:33N 34°40' E 135°18'4 4.2
2014-Oct-27 21:33N 34°41' E 135°13'1 1.0
2014-Oct-27 20:33N 34°41' E 135°12'0 0.0
2014-Oct-27 19:33N 34°41' E 135°12'0 0.0
2014-Oct-27 18:33N 34°41' E 135°12'0 0.0
2014-Oct-27 17:33N 34°41' E 135°12'0 0.0
2014-Oct-27 16:33N 34°41' E 135°12'2 1.8
2014-Oct-27 15:33N 34°40' E 135°14'1 1.2
2014-Oct-27 14:33N 34°40' E 135°13'0 0.0
2014-Oct-27 13:33N 34°40' E 135°13'1 1.4
2014-Oct-27 12:33N 34°41' E 135°15'1 1.2
2014-Oct-27 11:33N 34°40' E 135°15'2 1.6
2014-Oct-27 10:33N 34°41' E 135°16'2 2.2
2014-Oct-27 09:33N 34°41' E 135°14'1 0.7
2014-Oct-27 08:33N 34°41' E 135°14'1 1.4
2014-Oct-27 07:33N 34°40' E 135°13'2 1.9
2014-Oct-27 06:33N 34°39' E 135°15'0 0.2
2014-Oct-27 05:33N 34°39' E 135°15'0 0.0
2014-Oct-27 04:32N 34°39' E 135°15'0 0.0
2014-Oct-27 03:33N 34°39' E 135°15'3 2.7
2014-Oct-27 02:33N 34°41' E 135°12'0 0.0
2014-Oct-27 01:33N 34°41' E 135°12'0 0.0
2014-Oct-27 00:33N 34°41' E 135°12'0 0.0
2014-Oct-26 23:33N 34°41' E 135°12'2 1.9
2014-Oct-26 22:33N 34°40' E 135°15'0 0.2
2014-Oct-26 21:33N 34°40' E 135°15'2 2.0
2014-Oct-26 20:33N 34°41' E 135°12'0 0.0
2014-Oct-25 23:30N 34°41' E 135°12'4 4.5
2014-Oct-25 22:33N 34°42' E 135°17'1 1.1
2014-Oct-25 21:33N 34°41' E 135°17'0 0.0
2014-Oct-25 20:33N 34°41' E 135°17'0 0.0
2014-Oct-25 19:33N 34°41' E 135°17'0 0.0
2014-Oct-25 18:33N 34°41' E 135°17'0 0.0
2014-Oct-25 17:33N 34°41' E 135°17'3 3.1
2014-Oct-25 16:33N 34°40' E 135°14'1 0.9
2014-Oct-25 15:33N 34°40' E 135°15'0 0.0
2014-Oct-25 14:33N 34°40' E 135°15'1 0.6
2014-Oct-25 13:33N 34°39' E 135°15'2 1.6
2014-Oct-25 12:33N 34°39' E 135°16'4 3.8
2014-Oct-25 11:33N 34°41' E 135°12'0 0.0
2014-Oct-25 10:33N 34°41' E 135°12'0 0.0
2014-Oct-25 09:33N 34°41' E 135°12'0 0.0
2014-Oct-25 08:33N 34°41' E 135°12'1 0.8
2014-Oct-25 07:33N 34°40' E 135°13'1 1.2
2014-Oct-25 06:33N 34°41' E 135°14'0 0.0
2014-Oct-25 05:33N 34°41' E 135°14'2 2.2
2014-Oct-25 04:33N 34°41' E 135°17'4 4.0
2014-Oct-25 03:33N 34°41' E 135°12'0 0.0
2014-Oct-25 02:33N 34°41' E 135°12'0 0.0
2014-Oct-25 01:33N 34°41' E 135°12'0 0.0
2014-Oct-25 00:33N 34°41' E 135°12'0 0.0
2014-Oct-24 23:33N 34°41' E 135°12'4 4.2
2014-Oct-24 22:33N 34°41' E 135°17'3 2.6
2014-Oct-24 21:33N 34°41' E 135°14'2 1.6
2014-Oct-24 20:33N 34°41' E 135°12'0 0.0
2014-Oct-24 06:31N 34°41' E 135°12'0 0.0
2014-Oct-24 05:33N 34°41' E 135°12'0 0.0
2014-Oct-24 04:33N 34°41' E 135°12'0 0.0
2014-Oct-24 03:33N 34°41' E 135°12'0 0.0
2014-Oct-24 02:33N 34°41' E 135°12'0 0.0
2014-Oct-24 01:33N 34°41' E 135°12'0 0.0
2014-Oct-24 00:33N 34°41' E 135°12'0 0.0
2014-Oct-23 23:33N 34°41' E 135°12'0 0.0
2014-Oct-23 22:33N 34°41' E 135°12'0 0.0
2014-Oct-23 07:20N 34°41' E 135°12'2 2.2
2014-Oct-23 06:33N 34°40' E 135°14'2 1.8
2014-Oct-23 05:33N 34°41' E 135°12'0 0.1
2014-Oct-23 04:33N 34°41' E 135°12'0 0.0
2014-Oct-23 03:33N 34°41' E 135°12'0 0.0
2014-Oct-23 02:33N 34°41' E 135°12'0 0.0
2014-Oct-23 01:33N 34°41' E 135°12'2 2.3
2014-Oct-23 00:33N 34°39' E 135°15'0 0.3
2014-Oct-22 23:34N 34°39' E 135°15'1 0.8
2014-Oct-22 22:33N 34°40' E 135°14'2 1.7
2014-Oct-22 21:33N 34°41' E 135°13'1 0.8
2014-Oct-22 20:33N 34°41' E 135°12'0 0.0
2014-Oct-22 06:33N 34°41' E 135°12'2 2.4
2014-Oct-22 05:34N 34°39' E 135°15'0 0.3
2014-Oct-22 04:33N 34°39' E 135°15'0 0.0
2014-Oct-22 03:30N 34°39' E 135°15'3 3.1
2014-Oct-22 02:33N 34°41' E 135°12'3 3.1
2014-Oct-22 01:33N 34°39' E 135°15'0 0.3
2014-Oct-22 00:33N 34°39' E 135°15'3 2.8
2014-Oct-21 23:33N 34°41' E 135°12'0 0.0
2014-Oct-21 22:33N 34°41' E 135°12'0 0.0
2014-Oct-21 08:22N 34°41' E 135°12'2 2.9
2014-Oct-21 07:32N 34°39' E 135°15'  

Dump ship's entire track history